sensor_id;sensor_type;location;lat;lon;timestamp;P1;durP1;ratioP1;P2;durP2;ratioP2
44169;SDS011;29836;52.286;9.576;2024-02-16T00:01:17;2.22;;;1.25;;
44169;SDS011;29836;52.286;9.576;2024-02-16T00:03:42;3.83;;;1.10;;
44169;SDS011;29836;52.286;9.576;2024-02-16T00:06:08;2.28;;;1.00;;
44169;SDS011;29836;52.286;9.576;2024-02-16T00:08:33;3.65;;;1.42;;
44169;SDS011;29836;52.286;9.576;2024-02-16T00:10:59;3.47;;;1.15;;
44169;SDS011;29836;52.286;9.576;2024-02-16T00:13:25;3.03;;;1.40;;
44169;SDS011;29836;52.286;9.576;2024-02-16T00:15:50;5.95;;;1.50;;
44169;SDS011;29836;52.286;9.576;2024-02-16T00:18:16;1.95;;;1.00;;
44169;SDS011;29836;52.286;9.576;2024-02-16T00:20:42;3.03;;;1.40;;
44169;SDS011;29836;52.286;9.576;2024-02-16T00:23:07;3.33;;;1.05;;
44169;SDS011;29836;52.286;9.576;2024-02-16T00:25:34;3.88;;;1.45;;
44169;SDS011;29836;52.286;9.576;2024-02-16T00:27:59;3.08;;;1.13;;
44169;SDS011;29836;52.286;9.576;2024-02-16T00:30:25;4.63;;;1.23;;
44169;SDS011;29836;52.286;9.576;2024-02-16T00:32:52;3.97;;;1.40;;
44169;SDS011;29836;52.286;9.576;2024-02-16T00:35:17;3.08;;;1.52;;
44169;SDS011;29836;52.286;9.576;2024-02-16T00:37:44;5.45;;;1.30;;
44169;SDS011;29836;52.286;9.576;2024-02-16T00:40:10;3.97;;;1.40;;
44169;SDS011;29836;52.286;9.576;2024-02-16T00:42:37;3.83;;;1.50;;
44169;SDS011;29836;52.286;9.576;2024-02-16T00:45:03;2.67;;;1.23;;
44169;SDS011;29836;52.286;9.576;2024-02-16T00:47:29;4.22;;;1.60;;
44169;SDS011;29836;52.286;9.576;2024-02-16T00:49:54;3.45;;;1.40;;
44169;SDS011;29836;52.286;9.576;2024-02-16T00:52:21;3.97;;;1.60;;
44169;SDS011;29836;52.286;9.576;2024-02-16T00:54:47;5.40;;;1.60;;
44169;SDS011;29836;52.286;9.576;2024-02-16T00:57:13;2.97;;;1.30;;
44169;SDS011;29836;52.286;9.576;2024-02-16T00:59:39;4.30;;;1.90;;
44169;SDS011;29836;52.286;9.576;2024-02-16T01:02:05;4.32;;;1.65;;
44169;SDS011;29836;52.286;9.576;2024-02-16T01:04:30;3.67;;;1.70;;
44169;SDS011;29836;52.286;9.576;2024-02-16T01:06:56;4.75;;;1.83;;
44169;SDS011;29836;52.286;9.576;2024-02-16T01:09:22;3.63;;;1.70;;
44169;SDS011;29836;52.286;9.576;2024-02-16T01:11:47;2.88;;;1.75;;
44169;SDS011;29836;52.286;9.576;2024-02-16T01:14:14;5.13;;;1.45;;
44169;SDS011;29836;52.286;9.576;2024-02-16T01:16:39;3.60;;;1.65;;
44169;SDS011;29836;52.286;9.576;2024-02-16T01:19:05;4.28;;;1.67;;
44169;SDS011;29836;52.286;9.576;2024-02-16T01:21:32;3.08;;;1.48;;
44169;SDS011;29836;52.286;9.576;2024-02-16T01:23:58;5.05;;;1.75;;
44169;SDS011;29836;52.286;9.576;2024-02-16T01:26:25;4.50;;;1.80;;
44169;SDS011;29836;52.286;9.576;2024-02-16T01:28:51;3.85;;;1.45;;
44169;SDS011;29836;52.286;9.576;2024-02-16T01:31:17;5.30;;;1.77;;
44169;SDS011;29836;52.286;9.576;2024-02-16T01:33:42;2.85;;;1.40;;
44169;SDS011;29836;52.286;9.576;2024-02-16T01:36:08;4.30;;;1.80;;
44169;SDS011;29836;52.286;9.576;2024-02-16T01:38:33;3.55;;;1.52;;
44169;SDS011;29836;52.286;9.576;2024-02-16T01:40:59;5.05;;;1.60;;
44169;SDS011;29836;52.286;9.576;2024-02-16T01:43:26;5.38;;;1.85;;
44169;SDS011;29836;52.286;9.576;2024-02-16T01:45:52;2.95;;;1.50;;
44169;SDS011;29836;52.286;9.576;2024-02-16T01:48:18;3.35;;;1.38;;
44169;SDS011;29836;52.286;9.576;2024-02-16T01:50:44;4.05;;;1.70;;
44169;SDS011;29836;52.286;9.576;2024-02-16T01:53:11;5.50;;;1.70;;
44169;SDS011;29836;52.286;9.576;2024-02-16T01:55:37;4.72;;;2.00;;
44169;SDS011;29836;52.286;9.576;2024-02-16T01:58:03;3.35;;;1.30;;
44169;SDS011;29836;52.286;9.576;2024-02-16T02:00:30;3.63;;;1.55;;
44169;SDS011;29836;52.286;9.576;2024-02-16T02:02:55;4.10;;;1.48;;
44169;SDS011;29836;52.286;9.576;2024-02-16T02:05:22;4.40;;;1.48;;
44169;SDS011;29836;52.286;9.576;2024-02-16T02:07:48;5.18;;;1.55;;
44169;SDS011;29836;52.286;9.576;2024-02-16T02:10:14;3.15;;;1.27;;
44169;SDS011;29836;52.286;9.576;2024-02-16T02:12:40;4.03;;;1.30;;
44169;SDS011;29836;52.286;9.576;2024-02-16T02:15:07;2.55;;;1.38;;
44169;SDS011;29836;52.286;9.576;2024-02-16T02:17:33;4.20;;;1.40;;
44169;SDS011;29836;52.286;9.576;2024-02-16T02:19:59;5.28;;;1.13;;
44169;SDS011;29836;52.286;9.576;2024-02-16T02:22:25;3.58;;;1.50;;
44169;SDS011;29836;52.286;9.576;2024-02-16T02:24:52;3.80;;;1.58;;
44169;SDS011;29836;52.286;9.576;2024-02-16T02:27:20;5.05;;;1.30;;
44169;SDS011;29836;52.286;9.576;2024-02-16T02:29:46;2.83;;;1.20;;
44169;SDS011;29836;52.286;9.576;2024-02-16T02:32:11;2.88;;;1.20;;
44169;SDS011;29836;52.286;9.576;2024-02-16T02:34:38;3.47;;;1.25;;
44169;SDS011;29836;52.286;9.576;2024-02-16T02:37:03;3.47;;;1.33;;
44169;SDS011;29836;52.286;9.576;2024-02-16T02:39:29;2.00;;;1.30;;
44169;SDS011;29836;52.286;9.576;2024-02-16T02:41:55;3.47;;;1.20;;
44169;SDS011;29836;52.286;9.576;2024-02-16T02:44:23;4.45;;;1.38;;
44169;SDS011;29836;52.286;9.576;2024-02-16T02:46:49;2.70;;;1.40;;
44169;SDS011;29836;52.286;9.576;2024-02-16T02:49:14;3.55;;;1.30;;
44169;SDS011;29836;52.286;9.576;2024-02-16T02:51:40;3.72;;;1.38;;
44169;SDS011;29836;52.286;9.576;2024-02-16T02:54:05;3.42;;;1.30;;
44169;SDS011;29836;52.286;9.576;2024-02-16T02:56:31;4.47;;;1.10;;
44169;SDS011;29836;52.286;9.576;2024-02-16T02:58:57;3.65;;;1.50;;
44169;SDS011;29836;52.286;9.576;2024-02-16T03:01:22;4.10;;;1.25;;
44169;SDS011;29836;52.286;9.576;2024-02-16T03:03:48;3.28;;;1.20;;
44169;SDS011;29836;52.286;9.576;2024-02-16T03:06:17;3.08;;;1.10;;
44169;SDS011;29836;52.286;9.576;2024-02-16T03:08:43;2.08;;;1.25;;
44169;SDS011;29836;52.286;9.576;2024-02-16T03:11:09;3.90;;;1.35;;
44169;SDS011;29836;52.286;9.576;2024-02-16T03:13:35;2.47;;;1.13;;
44169;SDS011;29836;52.286;9.576;2024-02-16T03:16:01;3.72;;;1.15;;
44169;SDS011;29836;52.286;9.576;2024-02-16T03:18:30;3.60;;;1.15;;
44169;SDS011;29836;52.286;9.576;2024-02-16T03:20:56;4.93;;;1.13;;
44169;SDS011;29836;52.286;9.576;2024-02-16T03:23:22;4.35;;;1.30;;
44169;SDS011;29836;52.286;9.576;2024-02-16T03:25:48;2.17;;;1.10;;
44169;SDS011;29836;52.286;9.576;2024-02-16T03:28:14;3.30;;;1.15;;
44169;SDS011;29836;52.286;9.576;2024-02-16T03:30:40;2.55;;;1.10;;
44169;SDS011;29836;52.286;9.576;2024-02-16T03:33:06;4.60;;;1.33;;
44169;SDS011;29836;52.286;9.576;2024-02-16T03:35:32;2.33;;;1.17;;
44169;SDS011;29836;52.286;9.576;2024-02-16T03:37:58;3.75;;;1.33;;
44169;SDS011;29836;52.286;9.576;2024-02-16T03:40:24;1.80;;;1.00;;
44169;SDS011;29836;52.286;9.576;2024-02-16T03:42:50;1.88;;;0.98;;
44169;SDS011;29836;52.286;9.576;2024-02-16T03:45:16;3.30;;;1.27;;
44169;SDS011;29836;52.286;9.576;2024-02-16T03:47:41;4.22;;;1.30;;
44169;SDS011;29836;52.286;9.576;2024-02-16T03:50:07;5.88;;;1.27;;
44169;SDS011;29836;52.286;9.576;2024-02-16T03:52:33;4.78;;;1.25;;
44169;SDS011;29836;52.286;9.576;2024-02-16T03:54:58;2.70;;;1.00;;
44169;SDS011;29836;52.286;9.576;2024-02-16T03:57:24;5.13;;;1.50;;
44169;SDS011;29836;52.286;9.576;2024-02-16T03:59:50;5.72;;;1.63;;
44169;SDS011;29836;52.286;9.576;2024-02-16T04:02:15;3.28;;;1.13;;
44169;SDS011;29836;52.286;9.576;2024-02-16T04:04:41;5.45;;;1.17;;
44169;SDS011;29836;52.286;9.576;2024-02-16T04:07:07;2.00;;;1.00;;
44169;SDS011;29836;52.286;9.576;2024-02-16T04:09:33;3.80;;;1.13;;
44169;SDS011;29836;52.286;9.576;2024-02-16T04:11:59;2.55;;;1.30;;
44169;SDS011;29836;52.286;9.576;2024-02-16T04:14:26;3.35;;;1.15;;
44169;SDS011;29836;52.286;9.576;2024-02-16T04:16:51;3.90;;;1.17;;
44169;SDS011;29836;52.286;9.576;2024-02-16T04:19:17;1.90;;;1.00;;
44169;SDS011;29836;52.286;9.576;2024-02-16T04:21:43;3.85;;;1.00;;
44169;SDS011;29836;52.286;9.576;2024-02-16T04:24:09;3.67;;;1.15;;
44169;SDS011;29836;52.286;9.576;2024-02-16T04:26:35;3.05;;;1.10;;
44169;SDS011;29836;52.286;9.576;2024-02-16T04:29:00;2.67;;;1.23;;
44169;SDS011;29836;52.286;9.576;2024-02-16T04:31:29;2.22;;;1.13;;
44169;SDS011;29836;52.286;9.576;2024-02-16T04:33:54;2.83;;;1.40;;
44169;SDS011;29836;52.286;9.576;2024-02-16T04:36:20;2.58;;;1.20;;
44169;SDS011;29836;52.286;9.576;2024-02-16T04:38:45;3.90;;;1.20;;
44169;SDS011;29836;52.286;9.576;2024-02-16T04:41:11;2.50;;;1.00;;
44169;SDS011;29836;52.286;9.576;2024-02-16T04:43:36;3.47;;;1.15;;
44169;SDS011;29836;52.286;9.576;2024-02-16T04:46:02;2.03;;;1.08;;
44169;SDS011;29836;52.286;9.576;2024-02-16T04:48:28;3.25;;;1.10;;
44169;SDS011;29836;52.286;9.576;2024-02-16T04:50:54;3.75;;;1.45;;
44169;SDS011;29836;52.286;9.576;2024-02-16T04:53:19;3.60;;;1.10;;
44169;SDS011;29836;52.286;9.576;2024-02-16T04:55:45;2.80;;;1.10;;
44169;SDS011;29836;52.286;9.576;2024-02-16T04:58:10;2.33;;;1.23;;
44169;SDS011;29836;52.286;9.576;2024-02-16T05:00:37;2.92;;;1.10;;
44169;SDS011;29836;52.286;9.576;2024-02-16T05:03:02;3.50;;;1.35;;
44169;SDS011;29836;52.286;9.576;2024-02-16T05:05:28;2.80;;;1.33;;
44169;SDS011;29836;52.286;9.576;2024-02-16T05:07:54;2.97;;;1.05;;
44169;SDS011;29836;52.286;9.576;2024-02-16T05:10:19;3.25;;;1.20;;
44169;SDS011;29836;52.286;9.576;2024-02-16T05:12:45;3.42;;;1.50;;
44169;SDS011;29836;52.286;9.576;2024-02-16T05:15:11;3.65;;;1.23;;
44169;SDS011;29836;52.286;9.576;2024-02-16T05:17:40;3.65;;;1.20;;
44169;SDS011;29836;52.286;9.576;2024-02-16T05:20:11;3.72;;;1.17;;
44169;SDS011;29836;52.286;9.576;2024-02-16T05:22:43;2.72;;;1.00;;
44169;SDS011;29836;52.286;9.576;2024-02-16T05:25:12;4.38;;;1.40;;
44169;SDS011;29836;52.286;9.576;2024-02-16T05:27:38;4.57;;;1.30;;
44169;SDS011;29836;52.286;9.576;2024-02-16T05:30:04;1.73;;;1.08;;
44169;SDS011;29836;52.286;9.576;2024-02-16T05:32:33;3.97;;;1.33;;
44169;SDS011;29836;52.286;9.576;2024-02-16T05:35:02;3.95;;;1.40;;
44169;SDS011;29836;52.286;9.576;2024-02-16T05:37:36;2.55;;;1.10;;
44169;SDS011;29836;52.286;9.576;2024-02-16T05:40:02;3.35;;;1.35;;
44169;SDS011;29836;52.286;9.576;2024-02-16T05:42:44;3.10;;;1.20;;
44169;SDS011;29836;52.286;9.576;2024-02-16T05:45:11;4.75;;;1.33;;
44169;SDS011;29836;52.286;9.576;2024-02-16T05:47:36;3.13;;;1.30;;
44169;SDS011;29836;52.286;9.576;2024-02-16T05:50:03;4.72;;;1.60;;
44169;SDS011;29836;52.286;9.576;2024-02-16T05:52:30;2.33;;;1.23;;
44169;SDS011;29836;52.286;9.576;2024-02-16T05:54:55;1.90;;;1.10;;
44169;SDS011;29836;52.286;9.576;2024-02-16T05:57:21;3.25;;;1.33;;
44169;SDS011;29836;52.286;9.576;2024-02-16T05:59:48;3.15;;;1.20;;
44169;SDS011;29836;52.286;9.576;2024-02-16T06:02:14;3.15;;;1.35;;
44169;SDS011;29836;52.286;9.576;2024-02-16T06:04:40;2.28;;;1.08;;
44169;SDS011;29836;52.286;9.576;2024-02-16T06:07:05;3.47;;;1.60;;
44169;SDS011;29836;52.286;9.576;2024-02-16T06:09:31;1.80;;;1.02;;
44169;SDS011;29836;52.286;9.576;2024-02-16T06:12:03;1.83;;;1.20;;
44169;SDS011;29836;52.286;9.576;2024-02-16T06:14:32;3.45;;;1.02;;
44169;SDS011;29836;52.286;9.576;2024-02-16T06:16:58;4.95;;;1.20;;
44169;SDS011;29836;52.286;9.576;2024-02-16T06:19:25;3.80;;;1.30;;
44169;SDS011;29836;52.286;9.576;2024-02-16T06:21:50;7.38;;;1.50;;
44169;SDS011;29836;52.286;9.576;2024-02-16T06:24:19;2.92;;;1.20;;
44169;SDS011;29836;52.286;9.576;2024-02-16T06:26:45;5.22;;;1.63;;
44169;SDS011;29836;52.286;9.576;2024-02-16T06:29:11;2.92;;;1.13;;
44169;SDS011;29836;52.286;9.576;2024-02-16T06:31:37;2.28;;;1.20;;
44169;SDS011;29836;52.286;9.576;2024-02-16T06:34:08;2.28;;;1.25;;
44169;SDS011;29836;52.286;9.576;2024-02-16T06:36:34;3.17;;;1.30;;
44169;SDS011;29836;52.286;9.576;2024-02-16T06:39:00;1.55;;;1.00;;
44169;SDS011;29836;52.286;9.576;2024-02-16T06:41:25;4.57;;;1.40;;
44169;SDS011;29836;52.286;9.576;2024-02-16T06:43:51;3.58;;;1.20;;
44169;SDS011;29836;52.286;9.576;2024-02-16T06:46:17;3.50;;;1.20;;
44169;SDS011;29836;52.286;9.576;2024-02-16T06:48:42;5.57;;;1.20;;
44169;SDS011;29836;52.286;9.576;2024-02-16T06:51:08;5.55;;;1.50;;
44169;SDS011;29836;52.286;9.576;2024-02-16T06:53:33;5.38;;;1.52;;
44169;SDS011;29836;52.286;9.576;2024-02-16T06:55:59;3.13;;;1.58;;
44169;SDS011;29836;52.286;9.576;2024-02-16T06:58:24;3.33;;;1.60;;
44169;SDS011;29836;52.286;9.576;2024-02-16T07:00:50;4.38;;;1.67;;
44169;SDS011;29836;52.286;9.576;2024-02-16T07:03:16;3.72;;;1.52;;
44169;SDS011;29836;52.286;9.576;2024-02-16T07:05:43;3.28;;;1.48;;
44169;SDS011;29836;52.286;9.576;2024-02-16T07:08:08;4.85;;;1.88;;
44169;SDS011;29836;52.286;9.576;2024-02-16T07:10:34;4.70;;;1.77;;
44169;SDS011;29836;52.286;9.576;2024-02-16T07:13:00;3.58;;;1.48;;
44169;SDS011;29836;52.286;9.576;2024-02-16T07:15:25;4.60;;;1.60;;
44169;SDS011;29836;52.286;9.576;2024-02-16T07:17:52;4.30;;;1.40;;
44169;SDS011;29836;52.286;9.576;2024-02-16T07:20:18;3.95;;;1.40;;
44169;SDS011;29836;52.286;9.576;2024-02-16T07:22:44;3.05;;;1.40;;
44169;SDS011;29836;52.286;9.576;2024-02-16T07:25:11;4.93;;;1.45;;
44169;SDS011;29836;52.286;9.576;2024-02-16T07:27:37;4.88;;;1.90;;
44169;SDS011;29836;52.286;9.576;2024-02-16T07:30:03;2.55;;;1.45;;
44169;SDS011;29836;52.286;9.576;2024-02-16T07:32:29;7.65;;;2.10;;
44169;SDS011;29836;52.286;9.576;2024-02-16T07:34:55;3.25;;;1.45;;
44169;SDS011;29836;52.286;9.576;2024-02-16T07:37:20;4.13;;;1.48;;
44169;SDS011;29836;52.286;9.576;2024-02-16T07:39:46;3.47;;;1.60;;
44169;SDS011;29836;52.286;9.576;2024-02-16T07:42:11;4.15;;;1.58;;
44169;SDS011;29836;52.286;9.576;2024-02-16T07:44:38;5.38;;;1.92;;
44169;SDS011;29836;52.286;9.576;2024-02-16T07:47:04;4.68;;;1.83;;
44169;SDS011;29836;52.286;9.576;2024-02-16T07:49:29;4.28;;;1.92;;
44169;SDS011;29836;52.286;9.576;2024-02-16T07:51:55;2.55;;;1.35;;
44169;SDS011;29836;52.286;9.576;2024-02-16T07:54:21;4.07;;;1.80;;
44169;SDS011;29836;52.286;9.576;2024-02-16T07:56:46;4.20;;;1.67;;
44169;SDS011;29836;52.286;9.576;2024-02-16T07:59:12;4.35;;;1.83;;
44169;SDS011;29836;52.286;9.576;2024-02-16T08:01:38;3.95;;;1.75;;
44169;SDS011;29836;52.286;9.576;2024-02-16T08:04:03;3.08;;;1.65;;
44169;SDS011;29836;52.286;9.576;2024-02-16T08:06:29;6.38;;;1.80;;
44169;SDS011;29836;52.286;9.576;2024-02-16T08:08:55;5.40;;;1.40;;
44169;SDS011;29836;52.286;9.576;2024-02-16T08:11:20;3.13;;;1.35;;
44169;SDS011;29836;52.286;9.576;2024-02-16T08:13:47;4.13;;;1.45;;
44169;SDS011;29836;52.286;9.576;2024-02-16T08:16:12;3.97;;;1.45;;
44169;SDS011;29836;52.286;9.576;2024-02-16T08:18:38;3.60;;;1.40;;
44169;SDS011;29836;52.286;9.576;2024-02-16T08:21:03;2.83;;;1.50;;
44169;SDS011;29836;52.286;9.576;2024-02-16T08:23:29;2.60;;;1.48;;
44169;SDS011;29836;52.286;9.576;2024-02-16T08:25:56;3.92;;;1.58;;
44169;SDS011;29836;52.286;9.576;2024-02-16T08:28:22;2.47;;;1.45;;
44169;SDS011;29836;52.286;9.576;2024-02-16T08:30:47;2.80;;;1.60;;
44169;SDS011;29836;52.286;9.576;2024-02-16T08:33:13;3.28;;;1.70;;
44169;SDS011;29836;52.286;9.576;2024-02-16T08:35:38;3.58;;;1.33;;
44169;SDS011;29836;52.286;9.576;2024-02-16T08:38:04;6.38;;;1.60;;
44169;SDS011;29836;52.286;9.576;2024-02-16T08:40:29;4.80;;;1.40;;
44169;SDS011;29836;52.286;9.576;2024-02-16T08:42:55;2.67;;;1.45;;
44169;SDS011;29836;52.286;9.576;2024-02-16T08:45:21;6.10;;;1.52;;
44169;SDS011;29836;52.286;9.576;2024-02-16T08:47:46;2.67;;;1.50;;
44169;SDS011;29836;52.286;9.576;2024-02-16T08:50:12;3.53;;;1.50;;
44169;SDS011;29836;52.286;9.576;2024-02-16T08:52:38;2.65;;;1.15;;
44169;SDS011;29836;52.286;9.576;2024-02-16T08:55:03;4.90;;;1.67;;
44169;SDS011;29836;52.286;9.576;2024-02-16T08:57:31;3.05;;;1.50;;
44169;SDS011;29836;52.286;9.576;2024-02-16T08:59:56;2.75;;;1.60;;
44169;SDS011;29836;52.286;9.576;2024-02-16T09:02:22;3.80;;;1.60;;
44169;SDS011;29836;52.286;9.576;2024-02-16T09:04:48;3.00;;;1.27;;
44169;SDS011;29836;52.286;9.576;2024-02-16T09:07:13;4.70;;;1.55;;
44169;SDS011;29836;52.286;9.576;2024-02-16T09:09:39;2.50;;;1.40;;
44169;SDS011;29836;52.286;9.576;2024-02-16T09:12:04;2.63;;;1.40;;
44169;SDS011;29836;52.286;9.576;2024-02-16T09:14:30;5.60;;;1.23;;
44169;SDS011;29836;52.286;9.576;2024-02-16T09:16:57;3.50;;;1.60;;
44169;SDS011;29836;52.286;9.576;2024-02-16T09:19:22;2.85;;;1.40;;
44169;SDS011;29836;52.286;9.576;2024-02-16T09:21:48;2.67;;;1.30;;
44169;SDS011;29836;52.286;9.576;2024-02-16T09:24:16;2.65;;;1.40;;
44169;SDS011;29836;52.286;9.576;2024-02-16T09:26:43;3.67;;;1.55;;
44169;SDS011;29836;52.286;9.576;2024-02-16T09:29:11;3.33;;;1.42;;
44169;SDS011;29836;52.286;9.576;2024-02-16T09:31:38;2.38;;;1.55;;
44169;SDS011;29836;52.286;9.576;2024-02-16T09:34:04;3.85;;;1.55;;
44169;SDS011;29836;52.286;9.576;2024-02-16T09:36:30;3.88;;;1.55;;
44169;SDS011;29836;52.286;9.576;2024-02-16T09:38:55;4.22;;;1.40;;
44169;SDS011;29836;52.286;9.576;2024-02-16T09:41:22;5.63;;;1.58;;
44169;SDS011;29836;52.286;9.576;2024-02-16T09:43:47;2.97;;;1.33;;
44169;SDS011;29836;52.286;9.576;2024-02-16T09:46:13;4.93;;;1.50;;
44169;SDS011;29836;52.286;9.576;2024-02-16T09:48:41;4.35;;;1.80;;
44169;SDS011;29836;52.286;9.576;2024-02-16T09:51:13;3.60;;;1.35;;
44169;SDS011;29836;52.286;9.576;2024-02-16T09:53:38;4.50;;;1.50;;
44169;SDS011;29836;52.286;9.576;2024-02-16T09:56:07;2.08;;;1.38;;
44169;SDS011;29836;52.286;9.576;2024-02-16T09:58:34;4.97;;;1.50;;
44169;SDS011;29836;52.286;9.576;2024-02-16T10:01:00;3.38;;;1.42;;
44169;SDS011;29836;52.286;9.576;2024-02-16T10:03:29;5.50;;;1.70;;
44169;SDS011;29836;52.286;9.576;2024-02-16T10:06:07;4.95;;;1.67;;
44169;SDS011;29836;52.286;9.576;2024-02-16T10:08:34;2.47;;;1.20;;
44169;SDS011;29836;52.286;9.576;2024-02-16T10:11:11;5.88;;;1.50;;
44169;SDS011;29836;52.286;9.576;2024-02-16T10:13:36;2.97;;;1.55;;
44169;SDS011;29836;52.286;9.576;2024-02-16T10:16:10;2.85;;;1.50;;
44169;SDS011;29836;52.286;9.576;2024-02-16T10:18:37;3.25;;;1.30;;
44169;SDS011;29836;52.286;9.576;2024-02-16T10:21:03;3.60;;;1.65;;
44169;SDS011;29836;52.286;9.576;2024-02-16T10:23:29;3.75;;;1.58;;
44169;SDS011;29836;52.286;9.576;2024-02-16T10:25:55;5.22;;;1.27;;
44169;SDS011;29836;52.286;9.576;2024-02-16T10:28:20;3.67;;;1.50;;
44169;SDS011;29836;52.286;9.576;2024-02-16T10:30:52;4.00;;;1.50;;
44169;SDS011;29836;52.286;9.576;2024-02-16T10:33:27;2.95;;;1.48;;
44169;SDS011;29836;52.286;9.576;2024-02-16T10:35:53;3.30;;;1.70;;
44169;SDS011;29836;52.286;9.576;2024-02-16T10:38:22;4.20;;;1.60;;
44169;SDS011;29836;52.286;9.576;2024-02-16T10:40:48;4.82;;;1.60;;
44169;SDS011;29836;52.286;9.576;2024-02-16T10:43:15;4.13;;;1.70;;
44169;SDS011;29836;52.286;9.576;2024-02-16T10:45:43;2.85;;;1.58;;
44169;SDS011;29836;52.286;9.576;2024-02-16T10:48:12;4.10;;;1.80;;
44169;SDS011;29836;52.286;9.576;2024-02-16T10:50:37;5.72;;;2.17;;
44169;SDS011;29836;52.286;9.576;2024-02-16T10:53:09;3.47;;;1.75;;
44169;SDS011;29836;52.286;9.576;2024-02-16T11:00:33;3.30;;;1.45;;
44169;SDS011;29836;52.286;9.576;2024-02-16T11:02:59;4.43;;;1.65;;
44169;SDS011;29836;52.286;9.576;2024-02-16T11:05:34;2.67;;;1.42;;
44169;SDS011;29836;52.286;9.576;2024-02-16T11:08:01;4.55;;;1.73;;
44169;SDS011;29836;52.286;9.576;2024-02-16T11:10:36;3.03;;;1.50;;
44169;SDS011;29836;52.286;9.576;2024-02-16T11:13:02;2.90;;;1.40;;
44169;SDS011;29836;52.286;9.576;2024-02-16T11:15:32;4.68;;;1.60;;
44169;SDS011;29836;52.286;9.576;2024-02-16T11:18:03;3.95;;;1.58;;
44169;SDS011;29836;52.286;9.576;2024-02-16T11:20:36;2.55;;;1.30;;
44169;SDS011;29836;52.286;9.576;2024-02-16T11:23:06;1.92;;;1.35;;
44169;SDS011;29836;52.286;9.576;2024-02-16T11:25:34;3.10;;;1.63;;
44169;SDS011;29836;52.286;9.576;2024-02-16T11:28:01;2.70;;;1.40;;
44169;SDS011;29836;52.286;9.576;2024-02-16T11:30:27;3.90;;;1.75;;
44169;SDS011;29836;52.286;9.576;2024-02-16T11:32:53;3.05;;;1.60;;
44169;SDS011;29836;52.286;9.576;2024-02-16T11:35:18;4.03;;;1.85;;
44169;SDS011;29836;52.286;9.576;2024-02-16T11:37:44;5.35;;;1.67;;
44169;SDS011;29836;52.286;9.576;2024-02-16T11:40:12;3.20;;;1.40;;
44169;SDS011;29836;52.286;9.576;2024-02-16T11:42:38;7.75;;;1.65;;
44169;SDS011;29836;52.286;9.576;2024-02-16T11:45:04;2.90;;;1.50;;
44169;SDS011;29836;52.286;9.576;2024-02-16T11:47:31;4.32;;;1.60;;
44169;SDS011;29836;52.286;9.576;2024-02-16T11:50:00;3.47;;;1.50;;
44169;SDS011;29836;52.286;9.576;2024-02-16T11:52:25;4.85;;;1.80;;
44169;SDS011;29836;52.286;9.576;2024-02-16T11:54:51;6.25;;;1.90;;
44169;SDS011;29836;52.286;9.576;2024-02-16T11:57:17;3.83;;;1.85;;
44169;SDS011;29836;52.286;9.576;2024-02-16T11:59:42;4.57;;;1.90;;
44169;SDS011;29836;52.286;9.576;2024-02-16T12:02:08;5.38;;;1.70;;
44169;SDS011;29836;52.286;9.576;2024-02-16T12:04:44;5.25;;;1.40;;
44169;SDS011;29836;52.286;9.576;2024-02-16T12:07:12;5.57;;;1.80;;
44169;SDS011;29836;52.286;9.576;2024-02-16T12:09:38;5.35;;;2.15;;
44169;SDS011;29836;52.286;9.576;2024-02-16T12:12:04;6.85;;;1.80;;
44169;SDS011;29836;52.286;9.576;2024-02-16T12:14:34;4.95;;;1.85;;
44169;SDS011;29836;52.286;9.576;2024-02-16T12:17:00;2.63;;;1.40;;
44169;SDS011;29836;52.286;9.576;2024-02-16T12:19:25;3.20;;;1.52;;
44169;SDS011;29836;52.286;9.576;2024-02-16T12:21:51;4.35;;;1.42;;
44169;SDS011;29836;52.286;9.576;2024-02-16T12:24:18;4.70;;;1.80;;
44169;SDS011;29836;52.286;9.576;2024-02-16T12:26:43;4.05;;;1.75;;
44169;SDS011;29836;52.286;9.576;2024-02-16T12:29:09;2.75;;;1.50;;
44169;SDS011;29836;52.286;9.576;2024-02-16T12:31:37;3.88;;;1.80;;
44169;SDS011;29836;52.286;9.576;2024-02-16T12:34:05;5.20;;;1.80;;
44169;SDS011;29836;52.286;9.576;2024-02-16T12:36:32;3.92;;;1.55;;
44169;SDS011;29836;52.286;9.576;2024-02-16T12:38:59;4.07;;;1.80;;
44169;SDS011;29836;52.286;9.576;2024-02-16T12:41:25;7.20;;;1.98;;
44169;SDS011;29836;52.286;9.576;2024-02-16T12:43:50;4.03;;;1.67;;
44169;SDS011;29836;52.286;9.576;2024-02-16T12:46:16;4.72;;;1.90;;
44169;SDS011;29836;52.286;9.576;2024-02-16T12:48:42;4.32;;;1.70;;
44169;SDS011;29836;52.286;9.576;2024-02-16T12:51:07;5.75;;;1.77;;
44169;SDS011;29836;52.286;9.576;2024-02-16T12:53:33;3.50;;;1.65;;
44169;SDS011;29836;52.286;9.576;2024-02-16T12:56:06;6.28;;;2.08;;
44169;SDS011;29836;52.286;9.576;2024-02-16T12:58:33;4.35;;;1.90;;
44169;SDS011;29836;52.286;9.576;2024-02-16T13:00:58;6.22;;;2.00;;
44169;SDS011;29836;52.286;9.576;2024-02-16T13:03:24;4.28;;;1.90;;
44169;SDS011;29836;52.286;9.576;2024-02-16T13:05:49;8.85;;;2.10;;
44169;SDS011;29836;52.286;9.576;2024-02-16T13:08:15;6.53;;;1.92;;
44169;SDS011;29836;52.286;9.576;2024-02-16T13:10:40;5.97;;;1.88;;
44169;SDS011;29836;52.286;9.576;2024-02-16T13:13:07;4.30;;;1.75;;
44169;SDS011;29836;52.286;9.576;2024-02-16T13:15:32;5.85;;;1.85;;
44169;SDS011;29836;52.286;9.576;2024-02-16T13:17:58;4.85;;;2.05;;
44169;SDS011;29836;52.286;9.576;2024-02-16T13:20:24;5.80;;;1.90;;
44169;SDS011;29836;52.286;9.576;2024-02-16T13:22:49;5.35;;;2.00;;
44169;SDS011;29836;52.286;9.576;2024-02-16T13:25:15;5.68;;;2.17;;
44169;SDS011;29836;52.286;9.576;2024-02-16T13:27:41;5.32;;;2.10;;
44169;SDS011;29836;52.286;9.576;2024-02-16T13:30:06;6.07;;;2.10;;
44169;SDS011;29836;52.286;9.576;2024-02-16T13:32:35;7.13;;;2.30;;
44169;SDS011;29836;52.286;9.576;2024-02-16T13:35:04;5.03;;;2.20;;
44169;SDS011;29836;52.286;9.576;2024-02-16T13:37:31;5.35;;;2.28;;
44169;SDS011;29836;52.286;9.576;2024-02-16T13:39:56;6.97;;;2.22;;
44169;SDS011;29836;52.286;9.576;2024-02-16T13:42:22;8.23;;;2.30;;
44169;SDS011;29836;52.286;9.576;2024-02-16T13:44:47;5.15;;;2.65;;
44169;SDS011;29836;52.286;9.576;2024-02-16T13:47:13;6.15;;;2.55;;
44169;SDS011;29836;52.286;9.576;2024-02-16T13:49:38;6.63;;;2.30;;
44169;SDS011;29836;52.286;9.576;2024-02-16T13:52:04;5.32;;;2.17;;
44169;SDS011;29836;52.286;9.576;2024-02-16T13:54:30;5.57;;;2.28;;
44169;SDS011;29836;52.286;9.576;2024-02-16T13:56:55;5.93;;;2.55;;
44169;SDS011;29836;52.286;9.576;2024-02-16T13:59:21;4.18;;;1.80;;
44169;SDS011;29836;52.286;9.576;2024-02-16T14:01:47;6.35;;;2.28;;
44169;SDS011;29836;52.286;9.576;2024-02-16T14:04:13;6.22;;;2.30;;
44169;SDS011;29836;52.286;9.576;2024-02-16T14:06:39;5.82;;;2.67;;
44169;SDS011;29836;52.286;9.576;2024-02-16T14:09:05;8.50;;;2.35;;
44169;SDS011;29836;52.286;9.576;2024-02-16T14:11:34;4.97;;;2.58;;
44169;SDS011;29836;52.286;9.576;2024-02-16T14:14:00;6.28;;;2.75;;
44169;SDS011;29836;52.286;9.576;2024-02-16T14:16:26;5.60;;;2.70;;
44169;SDS011;29836;52.286;9.576;2024-02-16T14:18:52;8.18;;;2.90;;
44169;SDS011;29836;52.286;9.576;2024-02-16T14:21:17;5.50;;;2.65;;
44169;SDS011;29836;52.286;9.576;2024-02-16T14:23:43;6.93;;;2.80;;
44169;SDS011;29836;52.286;9.576;2024-02-16T14:26:09;6.10;;;2.83;;
44169;SDS011;29836;52.286;9.576;2024-02-16T14:28:35;7.60;;;2.92;;
44169;SDS011;29836;52.286;9.576;2024-02-16T14:31:00;6.60;;;3.10;;
44169;SDS011;29836;52.286;9.576;2024-02-16T14:33:26;6.38;;;2.90;;
44169;SDS011;29836;52.286;9.576;2024-02-16T14:35:51;5.75;;;2.83;;
44169;SDS011;29836;52.286;9.576;2024-02-16T14:38:17;7.63;;;3.55;;
44169;SDS011;29836;52.286;9.576;2024-02-16T14:40:42;6.38;;;3.15;;
44169;SDS011;29836;52.286;9.576;2024-02-16T14:43:08;7.72;;;2.72;;
44169;SDS011;29836;52.286;9.576;2024-02-16T14:45:33;5.88;;;2.60;;
44169;SDS011;29836;52.286;9.576;2024-02-16T14:47:59;7.93;;;3.15;;